sensor_id;sensor_type;location;lat;lon;timestamp;P1;P2;P0
62547;PMS7003;48602;45.192;5.722;2023-06-22T00:01:10;19.25;16.75;12.25
62547;PMS7003;48602;45.192;5.722;2023-06-22T00:03:36;20.25;17.25;14.75
62547;PMS7003;48602;45.192;5.722;2023-06-22T00:06:01;18.75;16.75;13.75
62547;PMS7003;48602;45.192;5.722;2023-06-22T00:08:26;25.50;21.00;16.00
62547;PMS7003;48602;45.192;5.722;2023-06-22T00:10:52;19.00;18.00;15.00
62547;PMS7003;48602;45.192;5.722;2023-06-22T00:13:17;24.75;21.00;15.75
62547;PMS7003;48602;45.192;5.722;2023-06-22T00:15:43;19.50;18.75;16.25
62547;PMS7003;48602;45.192;5.722;2023-06-22T00:18:09;19.25;17.00;13.50
62547;PMS7003;48602;45.192;5.722;2023-06-22T00:20:35;15.50;14.50;12.50
62547;PMS7003;48602;45.192;5.722;2023-06-22T00:23:06;17.50;14.25;11.25
62547;PMS7003;48602;45.192;5.722;2023-06-22T00:25:35;17.25;16.25;12.50
62547;PMS7003;48602;45.192;5.722;2023-06-22T00:28:02;20.00;18.00;14.75
62547;PMS7003;48602;45.192;5.722;2023-06-22T00:30:29;23.50;19.25;14.00
62547;PMS7003;48602;45.192;5.722;2023-06-22T00:32:55;17.25;16.25;12.25
62547;PMS7003;48602;45.192;5.722;2023-06-22T00:35:21;20.50;18.25;16.50
62547;PMS7003;48602;45.192;5.722;2023-06-22T00:37:46;21.25;18.50;12.75
62547;PMS7003;48602;45.192;5.722;2023-06-22T00:40:12;18.75;16.25;13.75
62547;PMS7003;48602;45.192;5.722;2023-06-22T00:42:38;18.00;16.75;13.00
62547;PMS7003;48602;45.192;5.722;2023-06-22T00:45:04;15.25;15.25;11.25
62547;PMS7003;48602;45.192;5.722;2023-06-22T00:47:30;17.00;15.00;11.75
62547;PMS7003;48602;45.192;5.722;2023-06-22T00:49:57;16.75;15.25;12.00
62547;PMS7003;48602;45.192;5.722;2023-06-22T00:52:23;19.75;16.00;11.50
62547;PMS7003;48602;45.192;5.722;2023-06-22T00:54:54;15.00;13.00;11.25
62547;PMS7003;48602;45.192;5.722;2023-06-22T00:57:21;19.25;18.25;14.50
62547;PMS7003;48602;45.192;5.722;2023-06-22T00:59:48;18.75;18.00;14.00
62547;PMS7003;48602;45.192;5.722;2023-06-22T01:02:13;16.75;15.25;11.50
62547;PMS7003;48602;45.192;5.722;2023-06-22T01:04:39;18.75;16.25;12.00
62547;PMS7003;48602;45.192;5.722;2023-06-22T01:07:25;20.75;17.25;12.00
62547;PMS7003;48602;45.192;5.722;2023-06-22T01:10:39;18.25;15.75;11.75
62547;PMS7003;48602;45.192;5.722;2023-06-22T01:12:59;19.25;17.25;13.00
62547;PMS7003;48602;45.192;5.722;2023-06-22T01:15:33;21.50;15.75;13.00
62547;PMS7003;48602;45.192;5.722;2023-06-22T01:18:08;17.25;15.25;12.00
62547;PMS7003;48602;45.192;5.722;2023-06-22T01:20:36;17.25;16.75;13.75
62547;PMS7003;48602;45.192;5.722;2023-06-22T01:25:48;18.75;17.00;13.00
62547;PMS7003;48602;45.192;5.722;2023-06-22T01:31:13;20.75;17.00;12.25
62547;PMS7003;48602;45.192;5.722;2023-06-22T01:33:43;20.00;16.00;13.25
62547;PMS7003;48602;45.192;5.722;2023-06-22T01:36:10;14.50;14.50;12.00
62547;PMS7003;48602;45.192;5.722;2023-06-22T01:38:37;18.50;15.25;14.00
62547;PMS7003;48602;45.192;5.722;2023-06-22T01:41:04;16.50;15.00;13.25
62547;PMS7003;48602;45.192;5.722;2023-06-22T01:43:29;16.00;16.00;12.75
62547;PMS7003;48602;45.192;5.722;2023-06-22T01:45:55;15.50;13.25;9.50
62547;PMS7003;48602;45.192;5.722;2023-06-22T01:48:22;16.50;16.25;13.75
62547;PMS7003;48602;45.192;5.722;2023-06-22T01:50:48;17.50;16.50;13.00
62547;PMS7003;48602;45.192;5.722;2023-06-22T01:53:14;16.00;15.50;12.00
62547;PMS7003;48602;45.192;5.722;2023-06-22T01:55:39;18.00;16.75;12.50
62547;PMS7003;48602;45.192;5.722;2023-06-22T01:58:05;16.00;13.00;11.00
62547;PMS7003;48602;45.192;5.722;2023-06-22T02:00:34;15.25;14.25;10.25
62547;PMS7003;48602;45.192;5.722;2023-06-22T02:03:26;18.50;16.00;11.25
62547;PMS7003;48602;45.192;5.722;2023-06-22T02:05:58;13.25;13.25;11.00
62547;PMS7003;48602;45.192;5.722;2023-06-22T02:08:30;16.25;15.00;12.50
62547;PMS7003;48602;45.192;5.722;2023-06-22T02:11:00;16.60;15.60;12.00
62547;PMS7003;48602;45.192;5.722;2023-06-22T02:13:28;15.75;15.50;12.50
62547;PMS7003;48602;45.192;5.722;2023-06-22T02:15:55;20.25;18.00;14.00
62547;PMS7003;48602;45.192;5.722;2023-06-22T02:18:21;20.50;18.00;13.25
62547;PMS7003;48602;45.192;5.722;2023-06-22T02:20:46;17.50;17.50;13.50
62547;PMS7003;48602;45.192;5.722;2023-06-22T02:23:12;17.50;17.25;13.50
62547;PMS7003;48602;45.192;5.722;2023-06-22T02:25:37;16.75;15.50;12.25
62547;PMS7003;48602;45.192;5.722;2023-06-22T02:28:03;17.50;17.25;14.25
62547;PMS7003;48602;45.192;5.722;2023-06-22T02:30:29;15.60;15.00;12.80
62547;PMS7003;48602;45.192;5.722;2023-06-22T02:32:55;16.50;16.00;11.50
62547;PMS7003;48602;45.192;5.722;2023-06-22T02:35:25;13.50;10.25;10.25
62547;PMS7003;48602;45.192;5.722;2023-06-22T02:37:51;20.25;16.75;12.25
62547;PMS7003;48602;45.192;5.722;2023-06-22T02:40:17;14.25;13.00;10.50
62547;PMS7003;48602;45.192;5.722;2023-06-22T02:42:42;13.00;13.00;11.50
62547;PMS7003;48602;45.192;5.722;2023-06-22T02:45:08;19.25;18.25;12.25
62547;PMS7003;48602;45.192;5.722;2023-06-22T02:47:34;18.25;17.25;13.00
62547;PMS7003;48602;45.192;5.722;2023-06-22T02:49:59;19.75;16.50;13.00
62547;PMS7003;48602;45.192;5.722;2023-06-22T02:52:25;17.50;15.00;12.25
62547;PMS7003;48602;45.192;5.722;2023-06-22T02:54:50;18.00;16.00;12.00
62547;PMS7003;48602;45.192;5.722;2023-06-22T02:57:16;15.75;14.75;12.75
62547;PMS7003;48602;45.192;5.722;2023-06-22T02:59:41;15.50;14.75;12.75
62547;PMS7003;48602;45.192;5.722;2023-06-22T03:02:07;17.50;15.75;13.00
62547;PMS7003;48602;45.192;5.722;2023-06-22T03:04:34;14.25;13.00;11.00
62547;PMS7003;48602;45.192;5.722;2023-06-22T03:06:59;16.75;14.00;11.25
62547;PMS7003;48602;45.192;5.722;2023-06-22T03:09:26;19.40;15.60;13.40
62547;PMS7003;48602;45.192;5.722;2023-06-22T03:11:55;16.75;16.25;14.00
62547;PMS7003;48602;45.192;5.722;2023-06-22T03:14:21;17.75;16.75;13.75
62547;PMS7003;48602;45.192;5.722;2023-06-22T03:16:46;13.00;12.75;8.50
62547;PMS7003;48602;45.192;5.722;2023-06-22T03:19:12;14.75;13.75;12.00
62547;PMS7003;48602;45.192;5.722;2023-06-22T03:21:38;15.75;13.50;10.25
62547;PMS7003;48602;45.192;5.722;2023-06-22T03:24:04;16.50;13.75;10.00
62547;PMS7003;48602;45.192;5.722;2023-06-22T03:26:30;16.00;16.00;13.00
62547;PMS7003;48602;45.192;5.722;2023-06-22T03:28:56;14.50;14.50;11.75
62547;PMS7003;48602;45.192;5.722;2023-06-22T03:31:21;15.50;13.75;12.00
62547;PMS7003;48602;45.192;5.722;2023-06-22T03:33:48;15.50;14.50;11.50
62547;PMS7003;48602;45.192;5.722;2023-06-22T03:36:14;10.50;8.25;5.50
62547;PMS7003;48602;45.192;5.722;2023-06-22T03:38:43;15.60;14.60;11.00
62547;PMS7003;48602;45.192;5.722;2023-06-22T03:41:09;13.75;13.75;9.00
62547;PMS7003;48602;45.192;5.722;2023-06-22T03:43:35;13.25;13.25;11.00
62547;PMS7003;48602;45.192;5.722;2023-06-22T03:46:00;13.00;12.50;10.25
62547;PMS7003;48602;45.192;5.722;2023-06-22T03:48:25;17.75;17.25;12.25
62547;PMS7003;48602;45.192;5.722;2023-06-22T03:50:51;14.00;10.75;9.75
62547;PMS7003;48602;45.192;5.722;2023-06-22T03:53:16;16.75;15.25;12.75
62547;PMS7003;48602;45.192;5.722;2023-06-22T03:55:48;20.50;18.00;12.75
62547;PMS7003;48602;45.192;5.722;2023-06-22T03:58:15;19.00;18.00;13.80
62547;PMS7003;48602;45.192;5.722;2023-06-22T04:00:41;15.50;13.25;10.50
62547;PMS7003;48602;45.192;5.722;2023-06-22T04:03:07;16.00;16.00;13.00
62547;PMS7003;48602;45.192;5.722;2023-06-22T04:05:32;22.75;18.50;15.00
62547;PMS7003;48602;45.192;5.722;2023-06-22T04:07:58;17.50;15.00;11.75
62547;PMS7003;48602;45.192;5.722;2023-06-22T04:10:23;19.00;18.25;14.25
62547;PMS7003;48602;45.192;5.722;2023-06-22T04:12:49;19.00;15.75;13.00
62547;PMS7003;48602;45.192;5.722;2023-06-22T04:15:14;15.50;14.50;12.00
62547;PMS7003;48602;45.192;5.722;2023-06-22T04:17:39;19.00;18.00;13.00
62547;PMS7003;48602;45.192;5.722;2023-06-22T04:20:05;16.00;13.50;9.25
62547;PMS7003;48602;45.192;5.722;2023-06-22T04:22:31;16.75;15.25;11.50
62547;PMS7003;48602;45.192;5.722;2023-06-22T04:24:57;13.50;12.25;8.25
62547;PMS7003;48602;45.192;5.722;2023-06-22T04:27:22;19.00;15.75;12.00
62547;PMS7003;48602;45.192;5.722;2023-06-22T04:29:48;23.00;16.00;12.50
62547;PMS7003;48602;45.192;5.722;2023-06-22T04:32:16;20.00;18.00;12.75
62547;PMS7003;48602;45.192;5.722;2023-06-22T04:34:42;20.25;19.00;13.25
62547;PMS7003;48602;45.192;5.722;2023-06-22T04:37:07;9.00;9.00;7.75
62547;PMS7003;48602;45.192;5.722;2023-06-22T04:39:33;20.50;15.50;13.25
62547;PMS7003;48602;45.192;5.722;2023-06-22T04:41:58;21.00;17.00;11.75
62547;PMS7003;48602;45.192;5.722;2023-06-22T04:44:27;19.50;16.75;14.00
62547;PMS7003;48602;45.192;5.722;2023-06-22T04:47:02;22.75;17.25;12.00
62547;PMS7003;48602;45.192;5.722;2023-06-22T04:49:29;19.50;16.00;12.75
62547;PMS7003;48602;45.192;5.722;2023-06-22T04:52:01;20.50;17.25;13.25
62547;PMS7003;48602;45.192;5.722;2023-06-22T04:54:28;19.00;19.00;14.25
62547;PMS7003;48602;45.192;5.722;2023-06-22T04:56:53;19.25;18.25;13.50
62547;PMS7003;48602;45.192;5.722;2023-06-22T04:59:22;18.00;16.00;12.25
62547;PMS7003;48602;45.192;5.722;2023-06-22T05:01:57;18.50;18.25;12.75
62547;PMS7003;48602;45.192;5.722;2023-06-22T05:04:23;16.50;15.25;12.50
62547;PMS7003;48602;45.192;5.722;2023-06-22T05:06:50;21.25;20.00;17.00
62547;PMS7003;48602;45.192;5.722;2023-06-22T05:09:16;21.25;19.00;14.25
62547;PMS7003;48602;45.192;5.722;2023-06-22T05:11:42;19.50;16.50;14.25
62547;PMS7003;48602;45.192;5.722;2023-06-22T05:14:08;18.25;15.75;12.50
62547;PMS7003;48602;45.192;5.722;2023-06-22T05:16:33;21.25;18.25;14.75
62547;PMS7003;48602;45.192;5.722;2023-06-22T05:18:59;19.50;17.50;15.00
62547;PMS7003;48602;45.192;5.722;2023-06-22T05:21:25;18.75;14.75;11.50
62547;PMS7003;48602;45.192;5.722;2023-06-22T05:23:52;25.25;19.25;15.00
62547;PMS7003;48602;45.192;5.722;2023-06-22T05:26:22;19.25;17.50;13.00
62547;PMS7003;48602;45.192;5.722;2023-06-22T05:28:47;24.75;21.50;15.75
62547;PMS7003;48602;45.192;5.722;2023-06-22T05:31:16;19.25;17.00;15.00
62547;PMS7003;48602;45.192;5.722;2023-06-22T05:33:42;18.00;15.75;13.00
62547;PMS7003;48602;45.192;5.722;2023-06-22T05:36:08;18.25;17.50;14.25
62547;PMS7003;48602;45.192;5.722;2023-06-22T05:38:35;19.75;18.00;14.75
62547;PMS7003;48602;45.192;5.722;2023-06-22T05:41:01;24.00;17.00;13.00
62547;PMS7003;48602;45.192;5.722;2023-06-22T05:43:26;12.75;11.00;9.00
62547;PMS7003;48602;45.192;5.722;2023-06-22T05:45:52;23.75;21.50;15.75
62547;PMS7003;48602;45.192;5.722;2023-06-22T05:48:17;20.50;18.25;14.50
62547;PMS7003;48602;45.192;5.722;2023-06-22T05:50:43;14.50;13.50;10.50
62547;PMS7003;48602;45.192;5.722;2023-06-22T05:53:08;16.00;15.75;12.00
62547;PMS7003;48602;45.192;5.722;2023-06-22T05:55:34;16.50;16.50;12.75
62547;PMS7003;48602;45.192;5.722;2023-06-22T05:57:59;17.25;16.50;12.25
62547;PMS7003;48602;45.192;5.722;2023-06-22T06:00:24;18.25;17.00;13.50
62547;PMS7003;48602;45.192;5.722;2023-06-22T06:02:50;16.25;13.50;10.75
62547;PMS7003;48602;45.192;5.722;2023-06-22T06:05:15;16.00;15.50;12.25
62547;PMS7003;48602;45.192;5.722;2023-06-22T06:07:44;18.75;15.50;11.00
62547;PMS7003;48602;45.192;5.722;2023-06-22T06:10:11;17.00;16.75;11.75
62547;PMS7003;48602;45.192;5.722;2023-06-22T06:12:37;21.75;15.00;12.00
62547;PMS7003;48602;45.192;5.722;2023-06-22T06:15:03;0.00;0.00;0.00
62547;PMS7003;48602;45.192;5.722;2023-06-22T06:17:29;20.00;16.75;13.25
62547;PMS7003;48602;45.192;5.722;2023-06-22T06:19:54;18.50;16.00;12.25
62547;PMS7003;48602;45.192;5.722;2023-06-22T06:22:20;15.25;14.50;12.50
62547;PMS7003;48602;45.192;5.722;2023-06-22T06:24:46;23.00;19.25;14.00
62547;PMS7003;48602;45.192;5.722;2023-06-22T06:27:13;19.25;16.75;12.50
62547;PMS7003;48602;45.192;5.722;2023-06-22T06:29:38;20.25;18.50;14.25
62547;PMS7003;48602;45.192;5.722;2023-06-22T06:32:04;18.25;16.25;12.00
62547;PMS7003;48602;45.192;5.722;2023-06-22T06:34:30;19.50;15.25;12.25
62547;PMS7003;48602;45.192;5.722;2023-06-22T06:36:55;22.25;18.00;14.75
62547;PMS7003;48602;45.192;5.722;2023-06-22T06:39:20;25.25;18.75;14.00
62547;PMS7003;48602;45.192;5.722;2023-06-22T06:41:46;20.75;15.50;11.75
62547;PMS7003;48602;45.192;5.722;2023-06-22T06:44:11;19.25;17.75;13.00
62547;PMS7003;48602;45.192;5.722;2023-06-22T06:46:37;21.50;17.50;12.00
62547;PMS7003;48602;45.192;5.722;2023-06-22T06:49:03;15.00;15.00;13.00
62547;PMS7003;48602;45.192;5.722;2023-06-22T06:51:28;20.75;17.75;13.25
62547;PMS7003;48602;45.192;5.722;2023-06-22T06:53:53;22.50;18.25;14.75
62547;PMS7003;48602;45.192;5.722;2023-06-22T06:56:19;17.00;16.00;12.50
62547;PMS7003;48602;45.192;5.722;2023-06-22T06:58:45;22.50;18.25;14.50
62547;PMS7003;48602;45.192;5.722;2023-06-22T07:01:11;16.75;16.50;10.75
62547;PMS7003;48602;45.192;5.722;2023-06-22T07:03:37;16.20;15.60;12.40
62547;PMS7003;48602;45.192;5.722;2023-06-22T07:06:03;21.75;20.25;16.25
62547;PMS7003;48602;45.192;5.722;2023-06-22T07:08:28;21.25;18.75;15.25
62547;PMS7003;48602;45.192;5.722;2023-06-22T07:10:53;21.00;16.50;13.25
62547;PMS7003;48602;45.192;5.722;2023-06-22T07:13:19;20.75;14.75;13.00
62547;PMS7003;48602;45.192;5.722;2023-06-22T07:15:44;17.75;15.00;11.00
62547;PMS7003;48602;45.192;5.722;2023-06-22T07:18:10;27.75;22.75;19.75
62547;PMS7003;48602;45.192;5.722;2023-06-22T07:20:35;17.25;14.50;12.25
62547;PMS7003;48602;45.192;5.722;2023-06-22T07:23:01;14.50;11.00;8.75
62547;PMS7003;48602;45.192;5.722;2023-06-22T07:25:26;19.00;16.75;13.50
62547;PMS7003;48602;45.192;5.722;2023-06-22T07:30:26;16.50;13.25;10.00
62547;PMS7003;48602;45.192;5.722;2023-06-22T07:32:52;12.75;10.50;8.50
62547;PMS7003;48602;45.192;5.722;2023-06-22T07:35:17;14.50;10.50;8.50
62547;PMS7003;48602;45.192;5.722;2023-06-22T07:37:43;13.00;11.50;9.50
62547;PMS7003;48602;45.192;5.722;2023-06-22T07:40:08;12.75;11.50;8.50
62547;PMS7003;48602;45.192;5.722;2023-06-22T07:42:34;11.80;8.00;6.00
62547;PMS7003;48602;45.192;5.722;2023-06-22T07:45:00;8.25;8.25;6.00
62547;PMS7003;48602;45.192;5.722;2023-06-22T07:47:27;13.75;9.25;6.25
62547;PMS7003;48602;45.192;5.722;2023-06-22T07:49:53;9.00;7.25;6.00
62547;PMS7003;48602;45.192;5.722;2023-06-22T07:52:22;8.00;6.00;5.60
62547;PMS7003;48602;45.192;5.722;2023-06-22T07:54:47;12.75;7.25;6.00
62547;PMS7003;48602;45.192;5.722;2023-06-22T07:57:13;10.00;6.50;5.75
62547;PMS7003;48602;45.192;5.722;2023-06-22T07:59:38;7.75;6.25;5.00
62547;PMS7003;48602;45.192;5.722;2023-06-22T08:02:04;10.00;7.00;4.00
62547;PMS7003;48602;45.192;5.722;2023-06-22T08:04:30;9.50;8.00;6.50
62547;PMS7003;48602;45.192;5.722;2023-06-22T08:06:59;6.50;3.50;3.00
62547;PMS7003;48602;45.192;5.722;2023-06-22T08:09:25;8.25;7.00;6.00
62547;PMS7003;48602;45.192;5.722;2023-06-22T08:11:52;7.00;6.20;5.00
62547;PMS7003;48602;45.192;5.722;2023-06-22T08:14:19;7.80;7.40;5.60
62547;PMS7003;48602;45.192;5.722;2023-06-22T08:16:44;7.00;6.75;5.50
62547;PMS7003;48602;45.192;5.722;2023-06-22T08:19:09;6.50;6.00;5.75
62547;PMS7003;48602;45.192;5.722;2023-06-22T08:21:35;10.50;7.75;5.75
62547;PMS7003;48602;45.192;5.722;2023-06-22T08:24:01;4.75;4.00;3.75
62547;PMS7003;48602;45.192;5.722;2023-06-22T08:26:29;11.75;9.25;6.50
62547;PMS7003;48602;45.192;5.722;2023-06-22T08:28:55;9.25;7.50;5.00
62547;PMS7003;48602;45.192;5.722;2023-06-22T08:31:20;7.75;6.50;5.50
62547;PMS7003;48602;45.192;5.722;2023-06-22T08:33:48;6.50;6.50;5.75
62547;PMS7003;48602;45.192;5.722;2023-06-22T08:36:14;8.75;7.00;6.50
62547;PMS7003;48602;45.192;5.722;2023-06-22T08:38:39;9.50;5.75;4.00
62547;PMS7003;48602;45.192;5.722;2023-06-22T08:41:05;4.00;2.75;2.50
62547;PMS7003;48602;45.192;5.722;2023-06-22T08:43:30;8.50;7.75;6.75
62547;PMS7003;48602;45.192;5.722;2023-06-22T08:45:55;6.50;5.75;4.50
62547;PMS7003;48602;45.192;5.722;2023-06-22T08:48:21;7.00;4.25;4.00
62547;PMS7003;48602;45.192;5.722;2023-06-22T08:50:46;9.25;7.25;6.00
62547;PMS7003;48602;45.192;5.722;2023-06-22T08:53:12;10.00;7.25;5.75
62547;PMS7003;48602;45.192;5.722;2023-06-22T08:55:37;8.50;5.25;3.25
62547;PMS7003;48602;45.192;5.722;2023-06-22T08:58:03;6.00;4.00;4.00
62547;PMS7003;48602;45.192;5.722;2023-06-22T09:00:28;9.00;5.75;5.25
62547;PMS7003;48602;45.192;5.722;2023-06-22T09:02:57;6.20;5.00;4.20
62547;PMS7003;48602;45.192;5.722;2023-06-22T09:05:24;8.40;3.60;2.40
62547;PMS7003;48602;45.192;5.722;2023-06-22T09:07:52;9.40;4.60;4.00
62547;PMS7003;48602;45.192;5.722;2023-06-22T09:10:20;5.80;3.40;3.00
62547;PMS7003;48602;45.192;5.722;2023-06-22T09:12:45;5.50;5.00;3.00
62547;PMS7003;48602;45.192;5.722;2023-06-22T09:15:10;5.75;4.25;4.25
62547;PMS7003;48602;45.192;5.722;2023-06-22T09:17:36;5.75;4.50;4.00
62547;PMS7003;48602;45.192;5.722;2023-06-22T09:20:02;7.50;6.25;4.25
62547;PMS7003;48602;45.192;5.722;2023-06-22T09:22:30;8.80;5.00;3.00
62547;PMS7003;48602;45.192;5.722;2023-06-22T09:24:57;9.00;7.50;6.00
62547;PMS7003;48602;45.192;5.722;2023-06-22T09:27:22;6.75;5.50;5.00
62547;PMS7003;48602;45.192;5.722;2023-06-22T09:29:48;7.50;5.75;5.00
62547;PMS7003;48602;45.192;5.722;2023-06-22T09:32:14;3.00;0.80;0.00
62547;PMS7003;48602;45.192;5.722;2023-06-22T09:34:40;7.75;6.00;5.75
62547;PMS7003;48602;45.192;5.722;2023-06-22T09:37:05;8.75;5.50;4.50
62547;PMS7003;48602;45.192;5.722;2023-06-22T09:39:31;9.25;7.00;5.00
62547;PMS7003;48602;45.192;5.722;2023-06-22T09:41:58;9.00;8.00;7.00
62547;PMS7003;48602;45.192;5.722;2023-06-22T09:44:25;8.25;8.25;7.00
62547;PMS7003;48602;45.192;5.722;2023-06-22T09:46:50;9.50;8.00;7.75
62547;PMS7003;48602;45.192;5.722;2023-06-22T09:49:15;7.75;7.00;6.00
62547;PMS7003;48602;45.192;5.722;2023-06-22T09:51:41;9.00;7.25;5.75
62547;PMS7003;48602;45.192;5.722;2023-06-22T09:54:06;7.25;6.50;5.25
62547;PMS7003;48602;45.192;5.722;2023-06-22T09:56:31;8.25;6.00;5.00
62547;PMS7003;48602;45.192;5.722;2023-06-22T09:58:57;7.00;7.00;5.25
62547;PMS7003;48602;45.192;5.722;2023-06-22T10:01:22;7.75;7.25;5.75
62547;PMS7003;48602;45.192;5.722;2023-06-22T10:03:48;11.75;10.00;8.00
62547;PMS7003;48602;45.192;5.722;2023-06-22T10:06:14;14.50;10.75;8.75
62547;PMS7003;48602;45.192;5.722;2023-06-22T10:08:39;12.75;11.00;8.75
62547;PMS7003;48602;45.192;5.722;2023-06-22T10:11:05;9.25;9.25;7.50
62547;PMS7003;48602;45.192;5.722;2023-06-22T10:13:31;9.25;7.75;6.75
62547;PMS7003;48602;45.192;5.722;2023-06-22T10:15:56;8.75;8.75;7.00
62547;PMS7003;48602;45.192;5.722;2023-06-22T10:18:22;12.75;11.50;9.00
62547;PMS7003;48602;45.192;5.722;2023-06-22T10:20:48;12.75;10.25;8.00
62547;PMS7003;48602;45.192;5.722;2023-06-22T10:23:17;16.25;13.00;9.00
62547;PMS7003;48602;45.192;5.722;2023-06-22T10:25:43;14.25;12.25;9.00
62547;PMS7003;48602;45.192;5.722;2023-06-22T10:28:09;9.75;8.75;7.00
62547;PMS7003;48602;45.192;5.722;2023-06-22T10:30:34;12.50;10.50;9.00
62547;PMS7003;48602;45.192;5.722;2023-06-22T10:32:59;9.25;8.75;7.25
62547;PMS7003;48602;45.192;5.722;2023-06-22T10:35:25;7.50;6.75;5.50
62547;PMS7003;48602;45.192;5.722;2023-06-22T10:37:50;7.25;7.00;6.00
62547;PMS7003;48602;45.192;5.722;2023-06-22T10:40:16;12.00;9.25;6.50
62547;PMS7003;48602;45.192;5.722;2023-06-22T10:42:43;11.00;9.50;8.25
62547;PMS7003;48602;45.192;5.722;2023-06-22T10:45:09;10.50;9.75;6.75
62547;PMS7003;48602;45.192;5.722;2023-06-22T10:47:34;10.00;7.25;5.75
62547;PMS7003;48602;45.192;5.722;2023-06-22T10:50:00;7.60;6.40;5.60
62547;PMS7003;48602;45.192;5.722;2023-06-22T10:52:26;8.75;8.75;7.00
62547;PMS7003;48602;45.192;5.722;2023-06-22T10:54:51;12.00;9.00;8.00
62547;PMS7003;48602;45.192;5.722;2023-06-22T10:57:17;8.75;7.00;5.50
62547;PMS7003;48602;45.192;5.722;2023-06-22T10:59:43;4.50;4.00;2.75
62547;PMS7003;48602;45.192;5.722;2023-06-22T11:02:08;9.00;6.00;5.00
62547;PMS7003;48602;45.192;5.722;2023-06-22T11:04:34;8.25;8.00;6.00
62547;PMS7003;48602;45.192;5.722;2023-06-22T11:06:59;6.75;5.75;4.50
62547;PMS7003;48602;45.192;5.722;2023-06-22T11:09:24;5.50;4.25;4.00
62547;PMS7003;48602;45.192;5.722;2023-06-22T11:11:50;6.00;4.25;4.00
62547;PMS7003;48602;45.192;5.722;2023-06-22T11:14:19;6.80;3.80;3.40
62547;PMS7003;48602;45.192;5.722;2023-06-22T11:16:45;10.00;8.25;5.25
62547;PMS7003;48602;45.192;5.722;2023-06-22T11:19:11;8.80;5.80;5.00
62547;PMS7003;48602;45.192;5.722;2023-06-22T11:21:37;5.25;4.25;3.75
62547;PMS7003;48602;45.192;5.722;2023-06-22T11:24:02;6.00;5.25;4.25
62547;PMS7003;48602;45.192;5.722;2023-06-22T11:26:28;6.25;5.75;4.00
62547;PMS7003;48602;45.192;5.722;2023-06-22T11:28:53;8.25;6.50;5.50
62547;PMS7003;48602;45.192;5.722;2023-06-22T11:31:19;8.50;7.25;5.50
62547;PMS7003;48602;45.192;5.722;2023-06-22T11:33:44;7.00;6.25;5.00
62547;PMS7003;48602;45.192;5.722;2023-06-22T11:36:11;8.00;5.60;5.40
62547;PMS7003;48602;45.192;5.722;2023-06-22T11:38:37;6.80;5.40;5.20
62547;PMS7003;48602;45.192;5.722;2023-06-22T11:41:04;8.50;6.75;6.25
62547;PMS7003;48602;45.192;5.722;2023-06-22T11:43:34;8.40;5.40;4.80
62547;PMS7003;48602;45.192;5.722;2023-06-22T11:45:59;6.75;6.50;5.75
62547;PMS7003;48602;45.192;5.722;2023-06-22T11:48:26;10.40;7.40;6.00
62547;PMS7003;48602;45.192;5.722;2023-06-22T11:50:52;8.00;6.50;4.50
62547;PMS7003;48602;45.192;5.722;2023-06-22T11:53:17;6.75;5.75;4.75
62547;PMS7003;48602;45.192;5.722;2023-06-22T11:55:43;11.00;9.50;7.00
62547;PMS7003;48602;45.192;5.722;2023-06-22T11:58:09;7.60;7.60;5.40
62547;PMS7003;48602;45.192;5.722;2023-06-22T12:00:35;9.50;8.50;7.00
62547;PMS7003;48602;45.192;5.722;2023-06-22T12:03:00;8.00;5.50;4.75
62547;PMS7003;48602;45.192;5.722;2023-06-22T12:05:25;8.00;6.25;5.00
62547;PMS7003;48602;45.192;5.722;2023-06-22T12:07:53;8.00;7.75;6.00
62547;PMS7003;48602;45.192;5.722;2023-06-22T12:10:19;9.50;8.25;6.75
62547;PMS7003;48602;45.192;5.722;2023-06-22T12:12:44;10.00;7.50;6.50
62547;PMS7003;48602;45.192;5.722;2023-06-22T12:15:10;5.25;4.50;3.50
62547;PMS7003;48602;45.192;5.722;2023-06-22T12:17:35;7.25;7.25;4.50
62547;PMS7003;48602;45.192;5.722;2023-06-22T12:20:01;6.25;4.50;3.50
62547;PMS7003;48602;45.192;5.722;2023-06-22T12:22:30;7.60;6.00;4.00
62547;PMS7003;48602;45.192;5.722;2023-06-22T12:24:59;8.00;7.20;5.60
62547;PMS7003;48602;45.192;5.722;2023-06-22T12:27:24;5.75;5.00;3.00
62547;PMS7003;48602;45.192;5.722;2023-06-22T12:29:50;8.00;8.00;7.50
62547;PMS7003;48602;45.192;5.722;2023-06-22T12:32:15;11.00;9.25;7.00
62547;PMS7003;48602;45.192;5.722;2023-06-22T12:34:43;7.75;6.00;4.75
62547;PMS7003;48602;45.192;5.722;2023-06-22T12:37:10;5.20;5.20;4.40
62547;PMS7003;48602;45.192;5.722;2023-06-22T12:39:35;7.50;6.50;5.50
62547;PMS7003;48602;45.192;5.722;2023-06-22T12:42:01;10.25;7.75;5.75
62547;PMS7003;48602;45.192;5.722;2023-06-22T12:44:27;2.75;2.00;1.25
62547;PMS7003;48602;45.192;5.722;2023-06-22T12:46:52;6.75;6.50;5.50
62547;PMS7003;48602;45.192;5.722;2023-06-22T12:49:17;8.50;7.50;6.50
62547;PMS7003;48602;45.192;5.722;2023-06-22T12:51:43;9.00;6.00;4.75
62547;PMS7003;48602;45.192;5.722;2023-06-22T12:54:09;11.25;5.75;4.25
62547;PMS7003;48602;45.192;5.722;2023-06-22T12:56:35;11.40;7.80;6.00
62547;PMS7003;48602;45.192;5.722;2023-06-22T12:59:03;9.00;7.40;5.80
62547;PMS7003;48602;45.192;5.722;2023-06-22T13:01:31;9.40;7.00;5.00
62547;PMS7003;48602;45.192;5.722;2023-06-22T13:03:57;6.00;4.75;3.50
62547;PMS7003;48602;45.192;5.722;2023-06-22T13:06:23;10.40;8.80;6.40
62547;PMS7003;48602;45.192;5.722;2023-06-22T13:08:49;6.50;6.00;5.00
62547;PMS7003;48602;45.192;5.722;2023-06-22T13:11:14;9.25;7.50;5.75
62547;PMS7003;48602;45.192;5.722;2023-06-22T13:13:40;7.75;7.75;6.00
62547;PMS7003;48602;45.192;5.722;2023-06-22T13:16:06;11.25;8.00;6.00
62547;PMS7003;48602;45.192;5.722;2023-06-22T13:18:32;11.50;9.00;7.00
62547;PMS7003;48602;45.192;5.722;2023-06-22T13:20:58;8.75;8.25;7.50
62547;PMS7003;48602;45.192;5.722;2023-06-22T13:23:25;8.80;8.40;6.80
62547;PMS7003;48602;45.192;5.722;2023-06-22T13:25:51;10.00;8.50;8.00
62547;PMS7003;48602;45.192;5.722;2023-06-22T13:28:16;8.75;7.00;5.00
62547;PMS7003;48602;45.192;5.722;2023-06-22T13:30:42;9.25;9.00;7.75
62547;PMS7003;48602;45.192;5.722;2023-06-22T13:33:10;14.80;10.80;8.20
62547;PMS7003;48602;45.192;5.722;2023-06-22T13:35:36;11.25;11.00;9.00
62547;PMS7003;48602;45.192;5.722;2023-06-22T13:38:01;16.00;12.25;11.00
62547;PMS7003;48602;45.192;5.722;2023-06-22T13:40:27;11.75;11.00;9.25
62547;PMS7003;48602;45.192;5.722;2023-06-22T13:42:52;11.50;11.00;9.25
62547;PMS7003;48602;45.192;5.722;2023-06-22T13:45:17;10.00;9.75;8.25
62547;PMS7003;48602;45.192;5.722;2023-06-22T13:47:44;11.00;7.50;5.25
62547;PMS7003;48602;45.192;5.722;2023-06-22T13:50:10;1.00;1.00;0.50
62547;PMS7003;48602;45.192;5.722;2023-06-22T13:52:37;6.60;4.20;4.00
62547;PMS7003;48602;45.192;5.722;2023-06-22T13:55:03;5.75;3.00;2.00
62547;PMS7003;48602;45.192;5.722;2023-06-22T13:57:29;1.00;0.80;0.80
62547;PMS7003;48602;45.192;5.722;2023-06-22T13:59:55;2.00;2.00;1.75
62547;PMS7003;48602;45.192;5.722;2023-06-22T14:02:20;1.00;0.25;0.00
62547;PMS7003;48602;45.192;5.722;2023-06-22T14:04:45;1.00;0.00;0.00